createdAt,value
2022-12-05T05:06:32.123Z,8.56
2022-12-05T05:09:35.556Z,8.56
2022-12-05T05:12:37.616Z,8.07
2022-12-05T05:15:39.978Z,8.21
2022-12-05T05:18:42.052Z,8.24
2022-12-05T05:21:44.425Z,8.08
2022-12-05T05:24:46.514Z,8.07
2022-12-05T05:27:50.331Z,8.23
2022-12-05T05:30:52.388Z,8.00
2022-12-05T05:33:56.316Z,7.91
2022-12-05T05:36:58.381Z,7.98
2022-12-05T05:40:03.875Z,8.03
2022-12-05T05:43:08.364Z,8.07
2022-12-05T05:46:11.132Z,8.11
2022-12-05T05:49:13.208Z,8.02
2022-12-05T05:52:15.508Z,8.16
2022-12-05T05:55:17.714Z,8.29
2022-12-05T05:58:20.209Z,8.27
2022-12-05T06:01:22.568Z,8.42
2022-12-05T06:04:24.981Z,8.34
2022-12-05T06:07:27.497Z,8.05
2022-12-05T06:10:30.250Z,8.09
2022-12-05T06:13:32.573Z,8.23
2022-12-05T06:16:35.033Z,8.47
2022-12-05T06:19:37.388Z,8.49
2022-12-05T06:22:39.786Z,8.32
2022-12-05T06:25:50.372Z,8.43
2022-12-05T06:28:53.457Z,8.33
2022-12-05T06:31:55.620Z,8.23
2022-12-05T06:34:58.008Z,8.27
2022-12-05T06:38:00.557Z,8.14
2022-12-05T06:41:07.099Z,8.14
2022-12-05T06:44:09.763Z,8.42
2022-12-05T06:47:12.047Z,8.32
2022-12-05T06:50:14.236Z,8.35
2022-12-05T06:53:16.629Z,8.42
2022-12-05T06:56:20.249Z,8.51
2022-12-05T06:59:22.612Z,8.43
2022-12-05T07:02:24.947Z,8.42
2022-12-05T07:05:27.485Z,8.46
2022-12-05T07:08:29.670Z,8.48
2022-12-05T07:11:32.180Z,8.36
2022-12-05T07:14:50.305Z,8.50
2022-12-05T07:17:52.896Z,8.50
2022-12-05T07:21:14.778Z,8.22
2022-12-05T07:24:17.673Z,8.18
2022-12-05T07:27:26.590Z,8.27
2022-12-05T07:30:29.829Z,8.41
2022-12-05T07:33:31.961Z,8.48
2022-12-05T07:36:34.517Z,8.39
2022-12-05T07:39:36.649Z,8.59
2022-12-05T07:42:38.936Z,8.40
2022-12-05T07:45:41.077Z,8.27
2022-12-05T07:48:43.624Z,8.44
2022-12-05T07:51:45.858Z,8.47
2022-12-05T07:54:48.308Z,8.39
2022-12-05T07:57:50.417Z,8.29
2022-12-05T08:00:52.717Z,8.57
2022-12-05T08:03:57.028Z,8.61
2022-12-05T08:06:59.120Z,8.77
2022-12-05T08:10:01.450Z,8.65
2022-12-05T08:13:03.573Z,8.77
2022-12-05T08:16:09.978Z,8.82
2022-12-05T08:19:13.517Z,8.79
2022-12-05T08:22:16.052Z,8.55
2022-12-05T08:25:18.095Z,8.49
2022-12-05T08:28:20.456Z,8.49
2022-12-05T08:31:24.440Z,8.45
2022-12-05T08:34:27.177Z,8.34
2022-12-05T08:37:29.281Z,8.49
2022-12-05T08:40:31.943Z,8.49
2022-12-05T08:43:34.610Z,8.73
2022-12-05T08:46:38.812Z,8.56
2022-12-05T08:49:40.883Z,8.64
2022-12-05T08:52:43.176Z,8.69
2022-12-05T08:55:48.191Z,8.76
2022-12-05T08:58:50.633Z,8.83
2022-12-05T09:01:52.821Z,8.77
2022-12-05T09:04:55.519Z,8.74
2022-12-05T09:07:59.800Z,8.70
2022-12-05T09:11:07.330Z,8.70
2022-12-05T09:14:09.543Z,8.62
2022-12-05T09:17:11.855Z,9.04
2022-12-05T09:20:14.263Z,9.22
2022-12-05T09:23:16.542Z,9.21
2022-12-05T09:26:21.855Z,8.99
2022-12-05T09:29:25.544Z,8.91
2022-12-05T09:32:27.580Z,8.97
2022-12-05T09:35:29.851Z,9.00
2022-12-05T09:38:32.360Z,9.37
2022-12-05T09:42:08.154Z,9.21
2022-12-05T09:45:29.116Z,9.26
2022-12-05T09:48:31.660Z,9.05
2022-12-05T09:51:40.215Z,9.07
2022-12-05T09:54:42.587Z,9.20
2022-12-05T09:57:51.295Z,9.25
2022-12-05T10:01:03.152Z,9.50
2022-12-05T10:04:37.172Z,9.30
2022-12-05T10:07:49.766Z,9.63
2022-12-05T10:11:17.123Z,9.42
2022-12-05T10:14:40.578Z,9.71
2022-12-05T10:17:57.925Z,9.59
2022-12-05T10:21:05.333Z,9.58
2022-12-05T10:24:18.636Z,9.50
2022-12-05T10:27:38.260Z,9.60
2022-12-05T10:30:43.116Z,9.76
2022-12-05T10:33:51.646Z,9.47
2022-12-05T10:37:02.469Z,9.71
2022-12-05T10:40:05.058Z,9.49
2022-12-05T10:43:10.201Z,9.59
2022-12-05T10:46:16.945Z,9.77
2022-12-05T10:49:20.728Z,9.81
2022-12-05T10:52:22.744Z,9.66
2022-12-05T10:55:31.247Z,9.58
2022-12-05T10:58:33.416Z,9.78
2022-12-05T11:01:37.448Z,9.80
2022-12-05T11:04:44.266Z,10.00
2022-12-05T11:07:49.779Z,10.03
2022-12-05T11:11:21.131Z,9.86
2022-12-05T11:14:26.268Z,9.79
2022-12-05T11:17:35.177Z,9.82
2022-12-05T11:20:38.957Z,9.77
2022-12-05T11:23:41.705Z,9.78
2022-12-05T11:26:45.765Z,9.79
2022-12-05T11:29:57.695Z,9.81
2022-12-05T11:33:20.090Z,9.83
2022-12-05T11:36:28.178Z,9.70
2022-12-05T11:39:31.575Z,9.78
2022-12-05T11:42:52.133Z,10.12
2022-12-05T11:45:57.235Z,10.08
2022-12-05T11:49:14.558Z,9.89
2022-12-05T11:52:40.609Z,9.91
2022-12-05T11:56:02.636Z,10.05
2022-12-05T11:59:27.073Z,10.16
2022-12-05T12:03:01.795Z,10.21
2022-12-05T12:06:13.472Z,10.29
2022-12-05T12:09:27.510Z,10.07
2022-12-05T12:12:35.783Z,10.10
2022-12-05T12:16:16.128Z,9.87
2022-12-05T12:19:26.889Z,9.91
2022-12-05T12:22:51.262Z,9.87
2022-12-05T12:26:08.096Z,10.12
2022-12-05T12:29:38.164Z,9.97
2022-12-05T12:33:05.067Z,10.07
2022-12-05T12:36:18.711Z,9.97
2022-12-05T12:39:42.460Z,9.77
2022-12-05T12:42:50.221Z,9.75
2022-12-05T12:46:11.336Z,9.85
2022-12-05T12:49:22.538Z,9.94
2022-12-05T12:52:54.910Z,9.95
2022-12-05T12:56:11.518Z,10.18
2022-12-05T12:59:43.040Z,10.06
2022-12-05T13:02:51.380Z,10.13
2022-12-05T13:06:12.578Z,10.23
2022-12-05T13:09:21.880Z,10.14
2022-12-05T13:12:31.407Z,9.95
2022-12-05T13:15:40.868Z,9.81
2022-12-05T13:18:43.288Z,9.77
2022-12-05T13:21:45.519Z,10.01
2022-12-05T13:24:53.469Z,9.97
2022-12-05T13:28:01.668Z,10.11
2022-12-05T13:31:05.800Z,9.99
2022-12-05T13:34:26.614Z,10.14
2022-12-05T13:37:50.167Z,9.93
2022-12-05T13:41:12.487Z,9.77
2022-12-05T13:44:15.786Z,9.95
2022-12-05T13:47:32.508Z,9.84
2022-12-05T13:50:51.485Z,9.96
2022-12-05T13:54:24.796Z,9.76
2022-12-05T13:57:39.507Z,9.88
2022-12-05T14:00:41.607Z,9.82
2022-12-05T14:03:47.035Z,9.71
2022-12-05T14:06:51.808Z,9.97
2022-12-05T14:09:55.238Z,9.93
2022-12-05T14:13:20.202Z,9.91
2022-12-05T14:16:22.551Z,9.92
2022-12-05T14:19:34.488Z,9.98
2022-12-05T14:23:05.411Z,9.88
2022-12-05T14:26:15.908Z,9.99
2022-12-05T14:29:36.601Z,10.11
2022-12-05T14:32:44.105Z,10.03
2022-12-05T14:35:51.448Z,9.91
2022-12-05T14:38:53.561Z,10.08
2022-12-05T14:42:01.369Z,10.09
2022-12-05T14:45:24.126Z,10.07
2022-12-05T14:48:33.368Z,10.11
2022-12-05T14:51:36.392Z,10.11
2022-12-05T14:54:39.520Z,9.97
2022-12-05T14:57:48.530Z,9.91
2022-12-05T15:00:57.644Z,10.23
2022-12-05T15:04:11.923Z,10.22
2022-12-05T15:07:19.348Z,10.02
2022-12-05T15:10:29.293Z,9.84
2022-12-05T15:13:32.607Z,9.94
2022-12-05T15:16:38.024Z,9.93
2022-12-05T15:19:51.026Z,9.91
2022-12-05T15:22:53.225Z,9.85
2022-12-05T15:25:57.389Z,10.01
2022-12-05T15:29:13.604Z,9.93
2022-12-05T15:32:21.251Z,9.94
2022-12-05T15:35:27.386Z,10.11
2022-12-05T15:38:32.748Z,10.12
2022-12-05T15:41:35.153Z,10.11
2022-12-05T15:44:38.288Z,10.02
2022-12-05T15:47:41.963Z,10.15
2022-12-05T15:50:49.480Z,10.23
2022-12-05T15:54:08.196Z,10.08
2022-12-05T15:57:19.892Z,10.19
2022-12-05T16:00:22.176Z,10.17
2022-12-05T16:03:34.210Z,10.11
2022-12-05T16:06:52.663Z,10.08
2022-12-05T16:10:00.070Z,10.05
2022-12-05T16:41:44.507Z,9.76
2022-12-05T16:44:46.714Z,9.76
2022-12-05T16:47:58.451Z,9.66
